createdAt,value
2022-10-11T00:00:17.820Z,10.63
2022-10-11T00:01:17.832Z,10.63
2022-10-11T00:02:17.787Z,10.61
2022-10-11T00:03:17.765Z,10.58
2022-10-11T00:04:17.780Z,10.55
2022-10-11T00:05:17.806Z,10.52
2022-10-11T00:06:17.732Z,10.51
2022-10-11T00:07:17.707Z,10.49
2022-10-11T00:08:17.702Z,10.45
2022-10-11T00:09:17.697Z,10.42
2022-10-11T00:10:17.686Z,10.41
2022-10-11T00:11:17.675Z,10.39
2022-10-11T00:12:17.631Z,10.37
2022-10-11T00:13:17.646Z,10.35
2022-10-11T00:14:17.630Z,10.31
2022-10-11T00:15:17.619Z,10.26
2022-10-11T00:16:17.599Z,10.22
2022-10-11T00:17:17.590Z,10.20
2022-10-11T00:18:17.598Z,10.17
2022-10-11T00:19:17.563Z,10.16
2022-10-11T00:20:17.551Z,10.16
2022-10-11T00:21:17.545Z,10.17
2022-10-11T00:22:17.501Z,10.16
2022-10-11T00:23:17.493Z,10.13
2022-10-11T00:24:17.507Z,10.08
2022-10-11T00:25:17.467Z,10.01
2022-10-11T00:26:17.449Z,9.95
2022-10-11T00:27:17.444Z,9.89
2022-10-11T00:28:17.488Z,9.83
2022-10-11T00:29:17.465Z,9.78
2022-10-11T00:30:17.396Z,9.74
2022-10-11T00:31:17.388Z,9.71
2022-10-11T00:32:17.371Z,9.67
2022-10-11T00:33:17.368Z,9.63
2022-10-11T00:34:17.360Z,9.60
2022-10-11T00:35:17.347Z,9.57
2022-10-11T00:36:17.333Z,9.55
2022-10-11T00:37:17.397Z,9.54
2022-10-11T00:38:17.323Z,9.53
2022-10-11T00:39:17.311Z,9.52
2022-10-11T00:40:17.300Z,9.50
2022-10-11T00:41:17.256Z,9.47
2022-10-11T00:42:17.259Z,9.46
2022-10-11T00:43:17.236Z,9.46
2022-10-11T00:44:17.230Z,9.45
2022-10-11T00:45:17.230Z,9.43
2022-10-11T00:46:17.201Z,9.42
2022-10-11T00:47:17.274Z,9.41
2022-10-11T00:48:17.165Z,9.38
2022-10-11T00:49:17.169Z,9.34
2022-10-11T00:50:17.154Z,9.31
2022-10-11T00:51:17.159Z,9.27
2022-10-11T00:52:17.130Z,9.23
2022-10-11T00:53:17.116Z,9.18
2022-10-11T00:54:17.103Z,9.14
2022-10-11T00:55:17.094Z,9.08
2022-10-11T00:56:17.057Z,9.03
2022-10-11T00:57:17.066Z,9.01
2022-10-11T00:58:17.046Z,8.99
2022-10-11T00:59:17.050Z,8.97
2022-10-11T01:00:16.996Z,8.96
2022-10-11T01:01:17.080Z,8.93
2022-10-11T01:02:16.997Z,8.92
2022-10-11T01:03:16.982Z,8.90
2022-10-11T01:04:16.962Z,8.90
2022-10-11T01:05:31.936Z,8.91
2022-10-11T01:06:16.948Z,8.92
2022-10-11T01:07:16.947Z,8.90
2022-10-11T01:08:16.915Z,8.87
2022-10-11T01:09:16.895Z,8.82
2022-10-11T01:10:16.879Z,8.78
2022-10-11T01:11:16.870Z,8.73
2022-10-11T01:12:16.846Z,8.68
2022-10-11T01:13:16.843Z,8.62
2022-10-11T01:14:16.836Z,8.56
2022-10-11T01:15:16.817Z,8.51
2022-10-11T01:16:16.796Z,8.48
2022-10-11T01:17:16.813Z,8.47
2022-10-11T01:18:16.781Z,8.47
2022-10-11T01:19:16.751Z,8.48
2022-10-11T01:20:16.758Z,8.48
2022-10-11T01:21:16.739Z,8.46
2022-10-11T01:22:16.730Z,8.42
2022-10-11T01:23:16.717Z,8.38
2022-10-11T01:24:16.710Z,8.33
2022-10-11T01:25:16.694Z,8.28
2022-10-11T01:26:16.679Z,8.24
2022-10-11T01:27:16.652Z,8.19
2022-10-11T01:28:16.763Z,8.15
2022-10-11T01:29:16.615Z,8.11
2022-10-11T01:30:16.631Z,8.07
2022-10-11T01:31:16.616Z,8.06
2022-10-11T01:32:16.603Z,8.04
2022-10-11T01:33:16.598Z,8.02
2022-10-11T01:34:16.593Z,8.00
2022-10-11T01:35:16.539Z,7.97
2022-10-11T01:36:16.547Z,7.93
2022-10-11T01:37:16.517Z,7.90
2022-10-11T01:38:16.527Z,7.86
2022-10-11T01:39:16.488Z,7.83
2022-10-11T01:40:16.512Z,7.81
2022-10-11T01:41:16.484Z,7.78
2022-10-11T01:42:16.449Z,7.73
2022-10-11T01:43:16.452Z,7.70
2022-10-11T01:44:16.423Z,7.68
2022-10-11T01:45:16.423Z,7.67
2022-10-11T01:46:16.398Z,7.67
2022-10-11T01:47:16.379Z,7.66
2022-10-11T01:48:16.399Z,7.67
2022-10-11T01:49:16.356Z,7.66
2022-10-11T01:50:16.357Z,7.64
2022-10-11T01:51:16.340Z,7.61
2022-10-11T01:52:16.334Z,7.58
2022-10-11T01:53:16.298Z,7.56
2022-10-11T01:54:16.426Z,7.54
2022-10-11T01:55:16.299Z,7.54
2022-10-11T01:56:16.297Z,7.53
2022-10-11T01:57:16.260Z,7.51
2022-10-11T01:58:16.244Z,7.50
2022-10-11T01:59:16.226Z,7.48
2022-10-11T02:00:16.225Z,7.45
2022-10-11T02:01:16.282Z,7.41
2022-10-11T02:02:16.188Z,7.37
2022-10-11T02:03:16.170Z,7.33
2022-10-11T02:04:16.161Z,7.27
2022-10-11T02:05:16.164Z,7.21
2022-10-11T02:06:16.186Z,7.15
2022-10-11T02:07:16.125Z,7.08
2022-10-11T02:08:16.111Z,7.02
2022-10-11T02:09:16.104Z,6.97
2022-10-11T02:10:16.080Z,6.92
2022-10-11T02:11:16.083Z,6.85
2022-10-11T02:12:16.085Z,6.78
2022-10-11T02:13:16.051Z,6.71
2022-10-11T02:14:16.047Z,6.63
2022-10-11T02:15:16.029Z,6.58
2022-10-11T02:16:16.004Z,6.54
2022-10-11T02:17:16.002Z,6.51
2022-10-11T02:18:16.021Z,6.49
2022-10-11T02:19:15.977Z,6.45
2022-10-11T02:20:15.954Z,6.40
2022-10-11T02:21:15.956Z,6.36
2022-10-11T02:22:15.945Z,6.34
2022-10-11T02:23:15.937Z,6.31
2022-10-11T02:24:15.932Z,6.27
2022-10-11T02:25:15.902Z,6.21
2022-10-11T02:26:15.896Z,6.15
2022-10-11T02:27:15.859Z,6.09
2022-10-11T02:28:15.871Z,6.03
2022-10-11T02:29:15.859Z,5.97
2022-10-11T02:30:15.840Z,5.92
2022-10-11T02:31:15.810Z,5.90
2022-10-11T02:32:15.806Z,5.89
2022-10-11T02:33:15.782Z,5.90
2022-10-11T02:34:15.773Z,5.91
2022-10-11T02:35:15.766Z,5.93
2022-10-11T02:36:15.768Z,5.95
2022-10-11T02:37:15.753Z,5.95
2022-10-11T02:38:15.735Z,5.94
2022-10-11T02:39:15.720Z,5.91
2022-10-11T02:40:15.717Z,5.87
2022-10-11T02:41:15.677Z,5.83
2022-10-11T02:42:15.667Z,5.79
2022-10-11T02:43:15.678Z,5.78
2022-10-11T02:44:15.655Z,5.80
2022-10-11T02:45:15.638Z,5.83
2022-10-11T02:46:17.679Z,5.84
2022-10-11T02:47:15.602Z,5.84
2022-10-11T02:48:15.598Z,5.83
2022-10-11T02:49:15.588Z,5.83
2022-10-11T02:50:15.593Z,5.84
2022-10-11T02:51:15.559Z,5.84
2022-10-11T02:52:15.552Z,5.83
2022-10-11T02:53:15.533Z,5.83
2022-10-11T02:54:15.555Z,5.83
2022-10-11T02:55:15.490Z,5.83
2022-10-11T02:56:15.487Z,5.81
2022-10-11T02:57:15.481Z,5.79
2022-10-11T02:58:15.463Z,5.74
2022-10-11T02:59:15.455Z,5.69
2022-10-11T03:00:15.477Z,5.64
2022-10-11T03:01:15.442Z,5.62
2022-10-11T03:02:15.426Z,5.61
2022-10-11T03:03:15.391Z,5.56
2022-10-11T03:04:15.379Z,5.49
2022-10-11T03:05:15.383Z,5.42
2022-10-11T03:06:15.370Z,5.37
2022-10-11T03:07:15.331Z,5.33
2022-10-11T03:08:15.370Z,5.31
2022-10-11T03:09:15.327Z,5.29
2022-10-11T03:10:15.300Z,5.27
2022-10-11T03:11:15.288Z,5.25
2022-10-11T03:12:15.273Z,5.22
2022-10-11T03:13:18.358Z,5.18
2022-10-11T03:14:15.273Z,5.17
2022-10-11T03:15:15.249Z,5.19
2022-10-11T03:16:15.514Z,5.21
2022-10-11T03:17:35.115Z,5.22
2022-10-11T03:18:15.217Z,5.21
2022-10-11T03:19:19.153Z,5.22
2022-10-11T03:20:15.189Z,5.25
2022-10-11T03:21:15.151Z,5.27
2022-10-11T03:22:15.143Z,5.30
2022-10-11T03:23:15.132Z,5.32
2022-10-11T03:24:15.156Z,5.33
2022-10-11T03:25:15.127Z,5.34
2022-10-11T03:26:15.108Z,5.32
2022-10-11T03:27:15.078Z,5.32
2022-10-11T03:28:15.160Z,5.33
2022-10-11T03:29:15.065Z,5.34
2022-10-11T03:30:17.967Z,5.36
2022-10-11T03:31:15.019Z,5.38
2022-10-11T03:32:15.031Z,5.39
2022-10-11T03:33:15.010Z,5.39
2022-10-11T03:34:14.999Z,5.38
2022-10-11T03:35:14.963Z,5.35
2022-10-11T03:36:14.990Z,5.33
2022-10-11T03:37:14.942Z,5.32
2022-10-11T03:38:14.931Z,5.33
2022-10-11T03:39:14.942Z,5.33
2022-10-11T03:40:14.930Z,5.31
2022-10-11T03:41:14.886Z,5.30
2022-10-11T03:42:14.881Z,5.29
2022-10-11T03:43:14.863Z,5.28
2022-10-11T03:44:14.872Z,5.26
2022-10-11T03:45:14.851Z,5.26
2022-10-11T03:46:14.858Z,5.26
2022-10-11T03:47:14.811Z,5.27
2022-10-11T03:48:14.818Z,5.28
2022-10-11T03:49:14.797Z,5.29
2022-10-11T03:50:14.774Z,5.30
2022-10-11T03:51:14.781Z,5.31
2022-10-11T03:52:14.766Z,5.30
2022-10-11T03:53:14.727Z,5.30
2022-10-11T03:54:14.724Z,5.29
2022-10-11T03:55:14.701Z,5.28
2022-10-11T03:56:15.384Z,5.26
2022-10-11T03:57:14.710Z,5.24
2022-10-11T03:58:14.668Z,5.23
2022-10-11T03:59:14.678Z,5.22
2022-10-11T04:00:14.663Z,5.20
2022-10-11T04:01:14.754Z,5.17
2022-10-11T04:02:14.703Z,5.18
2022-10-11T04:03:14.639Z,5.21
2022-10-11T04:04:14.593Z,5.24
2022-10-11T04:05:14.600Z,5.25
2022-10-11T04:06:14.586Z,5.27
2022-10-11T04:07:14.545Z,5.28
2022-10-11T04:08:14.564Z,5.27
2022-10-11T04:09:14.538Z,5.25
2022-10-11T04:10:14.515Z,5.22
2022-10-11T04:11:14.497Z,5.20
2022-10-11T04:12:14.507Z,5.18
2022-10-11T04:13:14.491Z,5.16
2022-10-11T04:14:14.489Z,5.14
2022-10-11T04:15:14.470Z,5.13
2022-10-11T04:16:14.455Z,5.12
2022-10-11T04:17:14.437Z,5.14
2022-10-11T04:18:14.426Z,5.18
2022-10-11T04:19:14.403Z,5.22
2022-10-11T04:20:14.401Z,5.26
2022-10-11T04:21:14.375Z,5.27
2022-10-11T04:22:14.361Z,5.27
2022-10-11T04:23:14.337Z,5.28
2022-10-11T04:24:14.338Z,5.30
2022-10-11T04:25:14.331Z,5.30
2022-10-11T04:26:14.333Z,5.28
2022-10-11T04:27:14.287Z,5.22
2022-10-11T04:28:14.321Z,5.14
2022-10-11T04:29:14.259Z,5.07
2022-10-11T04:30:14.268Z,5.02
2022-10-11T04:31:14.267Z,4.98
2022-10-11T04:32:14.223Z,4.97
2022-10-11T04:33:14.220Z,4.98
2022-10-11T04:34:14.195Z,4.99
2022-10-11T04:35:14.202Z,5.01
2022-10-11T04:36:14.184Z,5.02
2022-10-11T04:37:14.158Z,5.03
2022-10-11T04:38:14.147Z,5.01
2022-10-11T04:39:14.126Z,4.98
2022-10-11T04:40:14.151Z,4.95
2022-10-11T04:41:14.115Z,4.94
2022-10-11T04:42:14.093Z,4.93
2022-10-11T04:43:14.101Z,4.92
2022-10-11T04:44:14.084Z,4.93
2022-10-11T04:45:14.046Z,4.95
2022-10-11T04:46:14.069Z,4.95
2022-10-11T04:47:14.038Z,4.94
2022-10-11T04:48:14.042Z,4.94
2022-10-11T04:49:14.015Z,4.96
2022-10-11T04:50:13.987Z,4.96
2022-10-11T04:51:14.004Z,4.97
2022-10-11T04:52:13.963Z,4.97
2022-10-11T04:53:13.945Z,4.96
2022-10-11T04:54:13.961Z,4.95
2022-10-11T04:55:13.925Z,4.92
2022-10-11T04:56:13.909Z,4.89
2022-10-11T04:57:13.907Z,4.86
2022-10-11T04:58:13.889Z,4.83
2022-10-11T04:59:13.911Z,4.79
2022-10-11T05:00:13.855Z,4.76
2022-10-11T05:01:13.840Z,4.73
2022-10-11T05:02:13.899Z,4.70
2022-10-11T05:03:13.839Z,4.68
2022-10-11T05:04:13.806Z,4.72
2022-10-11T05:05:13.794Z,4.80
2022-10-11T05:06:14.286Z,4.87
2022-10-11T05:07:13.778Z,4.92
2022-10-11T05:08:13.811Z,4.93
2022-10-11T05:09:13.772Z,4.91
2022-10-11T05:10:13.779Z,4.92
2022-10-11T05:11:15.829Z,4.93
2022-10-11T05:12:13.726Z,4.93
2022-10-11T05:13:13.724Z,4.92
2022-10-11T05:14:13.673Z,4.90
2022-10-11T05:15:13.657Z,4.88
2022-10-11T05:16:13.904Z,4.85
2022-10-11T05:17:13.646Z,4.82
2022-10-11T05:18:13.675Z,4.77
2022-10-11T05:19:13.619Z,4.74
2022-10-11T05:20:13.615Z,4.72
2022-10-11T05:21:13.616Z,4.70
2022-10-11T05:22:13.605Z,4.68
2022-10-11T05:23:13.611Z,4.66
2022-10-11T05:24:13.582Z,4.68
2022-10-11T05:25:13.536Z,4.72
2022-10-11T05:26:13.552Z,4.76
2022-10-11T05:27:13.503Z,4.80
2022-10-11T05:28:13.602Z,4.83
2022-10-11T05:29:13.495Z,4.86
2022-10-11T05:30:13.483Z,4.89
2022-10-11T05:31:13.453Z,4.90
2022-10-11T05:32:13.444Z,4.88
2022-10-11T05:33:13.438Z,4.89
2022-10-11T05:34:13.436Z,4.92
2022-10-11T05:35:13.403Z,4.93
2022-10-11T05:36:13.379Z,4.93
2022-10-11T05:37:13.391Z,4.92
2022-10-11T05:38:13.389Z,4.89
2022-10-11T05:39:13.349Z,4.87
2022-10-11T05:40:13.327Z,4.84
2022-10-11T05:41:13.355Z,4.80
2022-10-11T05:42:13.310Z,4.77
2022-10-11T05:43:13.321Z,4.75
2022-10-11T05:44:13.292Z,4.74
2022-10-11T05:45:13.297Z,4.75
2022-10-11T05:46:13.285Z,4.77
2022-10-11T05:47:13.267Z,4.79
2022-10-11T05:48:13.232Z,4.83
2022-10-11T05:49:13.249Z,4.87
2022-10-11T05:50:13.226Z,4.90
2022-10-11T05:51:13.194Z,4.92
2022-10-11T05:52:13.199Z,4.92
2022-10-11T05:53:13.186Z,4.90
2022-10-11T05:54:13.168Z,4.86
2022-10-11T05:55:13.166Z,4.81
2022-10-11T05:56:13.139Z,4.77
2022-10-11T05:57:13.129Z,4.76
2022-10-11T05:58:13.127Z,4.73
2022-10-11T05:59:13.117Z,4.69
2022-10-11T06:00:13.084Z,4.67
2022-10-11T06:01:13.184Z,4.68
2022-10-11T06:02:13.057Z,4.71
2022-10-11T06:03:13.089Z,4.73
2022-10-11T06:04:13.083Z,4.75
2022-10-11T06:05:13.050Z,4.79
2022-10-11T06:06:13.061Z,4.82
2022-10-11T06:07:13.020Z,4.87
2022-10-11T06:08:12.987Z,4.93
2022-10-11T06:09:12.985Z,4.98
2022-10-11T06:10:12.941Z,5.01
2022-10-11T06:11:12.958Z,5.04
2022-10-11T06:12:12.910Z,5.06
2022-10-11T06:13:12.913Z,5.05
2022-10-11T06:14:12.917Z,5.04
2022-10-11T06:15:12.893Z,5.03
2022-10-11T06:16:12.871Z,5.05
2022-10-11T06:17:12.888Z,5.11
2022-10-11T06:18:12.846Z,5.16
2022-10-11T06:19:12.834Z,5.22
2022-10-11T06:20:12.805Z,5.29
2022-10-11T06:21:12.836Z,5.38
2022-10-11T06:22:12.803Z,5.47
2022-10-11T06:23:12.809Z,5.54
2022-10-11T06:24:12.753Z,5.61
2022-10-11T06:25:12.769Z,5.67
2022-10-11T06:26:12.757Z,5.73
2022-10-11T06:27:12.718Z,5.77
2022-10-11T06:28:12.747Z,5.82
2022-10-11T06:29:12.715Z,5.89
2022-10-11T06:30:12.675Z,5.96
2022-10-11T06:31:12.683Z,6.03
2022-10-11T06:32:12.646Z,6.08
2022-10-11T06:33:12.638Z,6.13
2022-10-11T06:34:12.638Z,6.17
2022-10-11T06:35:12.637Z,6.20
2022-10-11T06:36:12.631Z,6.24
2022-10-11T06:37:12.618Z,6.31
2022-10-11T06:38:12.602Z,6.38
2022-10-11T06:39:12.581Z,6.43
2022-10-11T06:40:12.556Z,6.47
2022-10-11T06:41:12.546Z,6.52
2022-10-11T06:42:12.561Z,6.56
2022-10-11T06:43:12.567Z,6.61
2022-10-11T06:44:14.337Z,6.65
2022-10-11T06:45:12.509Z,6.69
2022-10-11T06:46:12.509Z,6.73
2022-10-11T06:47:12.491Z,6.76
2022-10-11T06:48:12.467Z,6.79
2022-10-11T06:49:12.444Z,6.83
2022-10-11T06:50:12.435Z,6.88
2022-10-11T06:51:12.415Z,6.93
2022-10-11T06:52:12.402Z,6.98
2022-10-11T06:53:12.399Z,7.03
2022-10-11T06:54:12.405Z,7.08
2022-10-11T06:55:12.371Z,7.14
2022-10-11T06:56:12.361Z,7.18
2022-10-11T06:57:12.344Z,7.22
2022-10-11T06:58:12.314Z,7.26
2022-10-11T06:59:12.311Z,7.30
2022-10-11T07:00:12.890Z,7.35
2022-10-11T07:01:12.343Z,7.39
2022-10-11T07:02:12.270Z,7.44
2022-10-11T07:03:12.267Z,7.49
2022-10-11T07:04:12.311Z,7.55
2022-10-11T07:05:12.222Z,7.61
2022-10-11T07:06:12.202Z,7.67
2022-10-11T07:07:12.217Z,7.72
2022-10-11T07:08:12.186Z,7.74
2022-10-11T07:09:12.171Z,7.77
2022-10-11T07:10:12.165Z,7.79
2022-10-11T07:11:12.160Z,7.81
2022-10-11T07:12:12.124Z,7.83
2022-10-11T07:13:16.977Z,7.85
2022-10-11T07:14:12.107Z,7.88
2022-10-11T07:15:12.091Z,7.90
2022-10-11T07:16:12.089Z,7.92
2022-10-11T07:17:12.066Z,7.95
2022-10-11T07:18:12.070Z,7.97
2022-10-11T07:19:12.059Z,8.00
2022-10-11T07:20:12.047Z,8.03
2022-10-11T07:21:12.029Z,8.05
2022-10-11T07:22:11.995Z,8.08
2022-10-11T07:23:11.990Z,8.10
2022-10-11T07:24:11.991Z,8.16
2022-10-11T07:25:11.976Z,8.24
2022-10-11T07:26:11.953Z,8.29
2022-10-11T07:27:11.947Z,8.33
2022-10-11T07:28:11.991Z,8.37
2022-10-11T07:29:11.933Z,8.40
2022-10-11T07:30:11.904Z,8.44
2022-10-11T07:31:11.896Z,8.48
2022-10-11T07:32:11.858Z,8.52
2022-10-11T07:33:11.863Z,8.55
2022-10-11T07:34:11.860Z,8.58
2022-10-11T07:35:11.840Z,8.61
2022-10-11T07:36:11.834Z,8.65
2022-10-11T07:37:11.801Z,8.68
2022-10-11T07:38:11.808Z,8.72
2022-10-11T07:39:11.790Z,8.78
2022-10-11T07:40:11.753Z,8.83
2022-10-11T07:41:11.747Z,8.89
2022-10-11T07:42:11.748Z,8.96
2022-10-11T07:43:11.777Z,9.01
2022-10-11T07:44:11.698Z,9.07
2022-10-11T07:45:11.736Z,9.11
2022-10-11T07:46:11.688Z,9.15
2022-10-11T07:47:11.721Z,9.19
2022-10-11T07:48:11.656Z,9.23
2022-10-11T07:49:11.672Z,9.28
2022-10-11T07:50:11.629Z,9.34
2022-10-11T07:51:11.629Z,9.40
2022-10-11T07:52:11.594Z,9.44
2022-10-11T07:53:11.614Z,9.49
2022-10-11T07:54:11.584Z,9.53
2022-10-11T07:55:11.561Z,9.57
2022-10-11T07:56:11.539Z,9.61
2022-10-11T07:57:11.531Z,9.65
2022-10-11T07:58:11.533Z,9.69
2022-10-11T07:59:11.545Z,9.73
2022-10-11T08:00:11.504Z,9.79
2022-10-11T08:01:11.588Z,9.84
2022-10-11T08:02:11.494Z,9.89
2022-10-11T08:03:11.476Z,9.93
2022-10-11T08:04:11.457Z,9.96
2022-10-11T08:05:11.453Z,10.02
2022-10-11T08:06:11.414Z,10.07
2022-10-11T08:07:11.451Z,10.10
2022-10-11T08:08:11.403Z,10.12
2022-10-11T08:09:11.374Z,10.15
2022-10-11T08:10:11.372Z,10.18
2022-10-11T08:11:11.378Z,10.24
2022-10-11T08:12:11.585Z,10.29
2022-10-11T08:13:11.341Z,10.35
2022-10-11T08:14:11.357Z,10.42
2022-10-11T08:15:11.296Z,10.50
2022-10-11T08:16:11.317Z,10.55
2022-10-11T08:17:11.286Z,10.61
2022-10-11T08:18:11.253Z,10.70
2022-10-11T08:19:11.269Z,10.80
2022-10-11T08:20:11.256Z,10.88
2022-10-11T08:21:11.250Z,10.96
2022-10-11T08:22:11.218Z,11.06
2022-10-11T08:23:11.188Z,11.14
2022-10-11T08:24:11.193Z,11.23
2022-10-11T08:25:11.183Z,11.34
2022-10-11T08:26:11.163Z,11.54
2022-10-11T08:27:11.160Z,11.78
2022-10-11T08:28:11.188Z,12.07
2022-10-11T08:29:11.137Z,12.46
2022-10-11T08:30:11.122Z,12.92
2022-10-11T08:31:11.099Z,13.35
2022-10-11T08:32:11.086Z,13.70
2022-10-11T08:33:11.057Z,14.09
2022-10-11T08:34:11.039Z,14.42
2022-10-11T08:35:11.038Z,14.64
2022-10-11T08:36:11.370Z,14.85
2022-10-11T08:37:11.005Z,15.13
2022-10-11T08:38:11.009Z,15.26
2022-10-11T08:39:10.998Z,15.31
2022-10-11T08:40:10.998Z,15.50
2022-10-11T08:41:10.973Z,15.67
2022-10-11T08:42:10.934Z,15.82
2022-10-11T08:43:10.928Z,16.05
2022-10-11T08:44:10.922Z,16.16
2022-10-11T08:45:12.039Z,16.14
2022-10-11T08:46:10.883Z,16.05
2022-10-11T08:47:10.887Z,15.98
2022-10-11T08:48:10.860Z,16.06
2022-10-11T08:49:10.868Z,16.20
2022-10-11T08:50:10.860Z,16.32
2022-10-11T08:51:10.858Z,16.41
2022-10-11T08:52:10.801Z,16.46
2022-10-11T08:53:10.815Z,16.59
2022-10-11T08:54:10.778Z,16.75
2022-10-11T08:55:10.785Z,16.92
2022-10-11T08:56:10.760Z,16.99
2022-10-11T08:57:10.757Z,16.94
2022-10-11T08:58:10.721Z,16.94
2022-10-11T08:59:10.712Z,16.99
2022-10-11T09:00:10.712Z,17.04
2022-10-11T09:01:10.771Z,16.87
2022-10-11T09:02:10.688Z,16.47
2022-10-11T09:03:10.693Z,16.26
2022-10-11T09:04:10.641Z,16.28
2022-10-11T09:05:10.637Z,16.46
2022-10-11T09:06:10.616Z,16.77
2022-10-11T09:07:10.618Z,16.89
2022-10-11T09:08:10.603Z,16.84
2022-10-11T09:09:10.581Z,16.88
2022-10-11T09:10:10.567Z,17.05
2022-10-11T09:11:10.572Z,17.21
2022-10-11T09:12:10.569Z,17.36
2022-10-11T09:13:10.550Z,17.27
2022-10-11T09:14:10.528Z,17.11
2022-10-11T09:15:10.503Z,16.90
2022-10-11T09:16:10.520Z,16.64
2022-10-11T09:17:10.505Z,16.52
2022-10-11T09:18:10.475Z,16.64
2022-10-11T09:19:10.452Z,16.83
2022-10-11T09:20:10.452Z,17.09
2022-10-11T09:21:10.419Z,17.38
2022-10-11T09:22:10.432Z,17.65
2022-10-11T09:23:10.394Z,17.90
2022-10-11T09:24:10.410Z,18.01
2022-10-11T09:25:10.405Z,18.02
2022-10-11T09:26:10.367Z,18.03
2022-10-11T09:27:10.367Z,18.15
2022-10-11T09:28:10.363Z,18.25
2022-10-11T09:29:10.408Z,18.19
2022-10-11T09:30:10.329Z,18.10
2022-10-11T09:31:10.300Z,18.04
2022-10-11T09:32:10.307Z,17.89
2022-10-11T09:33:10.308Z,17.63
2022-10-11T09:34:10.277Z,17.35
2022-10-11T09:35:10.271Z,17.25
2022-10-11T09:36:10.246Z,17.38
2022-10-11T09:37:10.229Z,17.68
2022-10-11T09:38:10.214Z,17.81
2022-10-11T09:39:10.206Z,17.69
2022-10-11T09:40:10.189Z,17.77
2022-10-11T09:41:10.165Z,17.68
2022-10-11T09:42:10.151Z,17.29
2022-10-11T09:43:10.148Z,17.03
2022-10-11T09:44:10.132Z,17.07
2022-10-11T09:45:10.100Z,17.23
2022-10-11T09:46:10.112Z,17.33
2022-10-11T09:47:10.078Z,17.52
2022-10-11T09:48:10.071Z,17.74
2022-10-11T09:49:10.071Z,17.68
2022-10-11T09:50:10.056Z,17.60
2022-10-11T09:51:10.044Z,17.64
2022-10-11T09:52:10.028Z,17.81
2022-10-11T09:53:09.998Z,18.13
2022-10-11T09:54:10.005Z,18.40
2022-10-11T09:55:09.974Z,18.58
2022-10-11T09:56:10.241Z,18.76
2022-10-11T09:57:09.943Z,18.64
2022-10-11T09:58:09.956Z,18.22
2022-10-11T09:59:09.938Z,17.98
2022-10-11T10:00:09.928Z,18.03
2022-10-11T10:01:09.913Z,18.16
2022-10-11T10:02:10.000Z,18.41
2022-10-11T10:03:09.867Z,18.71
2022-10-11T10:04:09.916Z,18.88
2022-10-11T10:05:09.870Z,19.12
2022-10-11T10:06:09.854Z,19.35
2022-10-11T10:07:09.816Z,19.37
2022-10-11T10:08:09.834Z,19.45
2022-10-11T10:09:09.809Z,19.43
2022-10-11T10:10:09.809Z,19.17
2022-10-11T10:11:09.789Z,18.86
2022-10-11T10:12:09.767Z,18.61
2022-10-11T10:13:09.760Z,18.60
2022-10-11T10:14:09.732Z,18.83
2022-10-11T10:15:09.738Z,19.10
2022-10-11T10:16:09.733Z,19.10
2022-10-11T10:17:09.709Z,19.00
2022-10-11T10:18:09.680Z,19.09
2022-10-11T10:19:09.681Z,19.08
2022-10-11T10:20:09.671Z,18.85
2022-10-11T10:21:09.650Z,18.67
2022-10-11T10:22:09.692Z,18.66
2022-10-11T10:23:09.652Z,18.57
2022-10-11T10:24:09.639Z,18.30
2022-10-11T10:25:09.630Z,17.92
2022-10-11T10:26:09.643Z,17.61
2022-10-11T10:27:09.585Z,17.54
2022-10-11T10:28:09.706Z,17.59
2022-10-11T10:29:09.569Z,17.71
2022-10-11T10:30:09.548Z,17.95
2022-10-11T10:31:09.556Z,18.27
2022-10-11T10:32:14.253Z,18.41
2022-10-11T10:33:09.505Z,18.33
2022-10-11T10:34:09.495Z,18.19
2022-10-11T10:35:09.513Z,17.96
2022-10-11T10:36:09.720Z,17.78
2022-10-11T10:37:09.509Z,17.63
2022-10-11T10:38:09.446Z,17.52
2022-10-11T10:39:09.402Z,17.66
2022-10-11T10:40:09.440Z,17.95
2022-10-11T10:41:09.399Z,18.06
2022-10-11T10:42:09.405Z,18.03
2022-10-11T10:43:09.364Z,18.06
2022-10-11T10:44:09.340Z,18.23
2022-10-11T10:45:12.541Z,18.47
2022-10-11T10:46:09.659Z,18.69
2022-10-11T10:47:09.297Z,18.90
2022-10-11T10:48:09.302Z,19.02
2022-10-11T10:49:34.844Z,19.05
2022-10-11T10:50:09.293Z,19.04
2022-10-11T10:51:10.569Z,18.94
2022-10-11T10:52:09.242Z,18.85
2022-10-11T10:53:09.247Z,18.92
2022-10-11T10:54:09.211Z,19.07
2022-10-11T10:55:09.194Z,19.23
2022-10-11T10:56:09.630Z,19.31
2022-10-11T10:57:09.167Z,19.33
2022-10-11T10:58:09.187Z,19.42
2022-10-11T10:59:09.157Z,19.63
2022-10-11T11:00:09.152Z,19.82
2022-10-11T11:01:09.178Z,19.90
2022-10-11T11:02:35.095Z,19.88
2022-10-11T11:03:09.146Z,19.77
2022-10-11T11:04:09.116Z,19.40
2022-10-11T11:05:09.085Z,18.77
2022-10-11T11:06:09.433Z,18.07
2022-10-11T11:07:09.056Z,17.33
2022-10-11T11:08:09.049Z,16.95
2022-10-11T11:09:09.033Z,17.02
2022-10-11T11:10:09.046Z,17.25
2022-10-11T11:11:09.032Z,17.54
2022-10-11T11:12:08.982Z,17.83
2022-10-11T11:13:09.004Z,18.08
2022-10-11T11:14:08.964Z,18.40
2022-10-11T11:15:08.933Z,18.79
2022-10-11T11:16:08.964Z,19.10
2022-10-11T11:17:08.956Z,19.37
2022-10-11T11:18:08.930Z,19.71
2022-10-11T11:19:08.905Z,19.95
2022-10-11T11:20:08.900Z,19.74
2022-10-11T11:21:08.887Z,19.39
2022-10-11T11:22:08.872Z,19.16
2022-10-11T11:23:08.853Z,18.92
2022-10-11T11:24:08.848Z,18.58
2022-10-11T11:25:08.811Z,18.40
2022-10-11T11:26:09.069Z,18.48
2022-10-11T11:27:08.822Z,18.68
2022-10-11T11:28:08.842Z,18.97
2022-10-11T11:29:08.777Z,19.26
2022-10-11T11:30:08.771Z,19.19
2022-10-11T11:31:09.043Z,18.61
2022-10-11T11:32:08.742Z,18.18
2022-10-11T11:33:08.719Z,18.23
2022-10-11T11:34:08.721Z,18.51
2022-10-11T11:35:08.710Z,18.81
2022-10-11T11:36:08.886Z,19.06
2022-10-11T11:37:08.657Z,19.27
2022-10-11T11:38:08.638Z,19.20
2022-10-11T11:39:08.619Z,19.06
2022-10-11T11:40:08.636Z,18.99
2022-10-11T11:41:08.939Z,18.80
2022-10-11T11:42:08.608Z,18.42
2022-10-11T11:43:08.585Z,17.84
2022-10-11T11:44:08.579Z,17.15
2022-10-11T11:45:08.548Z,16.51
2022-10-11T11:46:08.567Z,16.13
2022-10-11T11:47:08.535Z,16.16
2022-10-11T11:48:08.560Z,16.50
2022-10-11T11:49:12.197Z,16.92
2022-10-11T11:50:08.495Z,17.21
2022-10-11T11:51:08.707Z,17.26
2022-10-11T11:52:08.457Z,17.33
2022-10-11T11:53:08.437Z,17.59
2022-10-11T11:54:08.430Z,17.80
2022-10-11T11:55:08.410Z,17.72
2022-10-11T11:56:08.431Z,17.49
2022-10-11T11:57:08.394Z,17.35
2022-10-11T11:58:08.418Z,17.41
2022-10-11T11:59:08.388Z,17.36
2022-10-11T12:00:08.355Z,17.13
2022-10-11T12:01:08.791Z,16.85
2022-10-11T12:02:08.371Z,16.82
2022-10-11T12:03:08.309Z,17.04
2022-10-11T12:04:08.318Z,17.40
2022-10-11T12:05:08.298Z,17.92
2022-10-11T12:06:08.281Z,18.41
2022-10-11T12:07:16.986Z,18.81
2022-10-11T12:08:08.258Z,19.14
2022-10-11T12:09:08.231Z,19.40
2022-10-11T12:10:08.257Z,19.67
2022-10-11T12:11:08.541Z,19.78
2022-10-11T12:12:08.226Z,19.34
2022-10-11T12:13:08.206Z,18.56
2022-10-11T12:14:08.193Z,17.91
2022-10-11T12:15:08.173Z,17.52
2022-10-11T12:16:08.172Z,17.12
2022-10-11T12:17:08.161Z,17.00
2022-10-11T12:18:08.146Z,17.34
2022-10-11T12:19:08.114Z,17.62
2022-10-11T12:20:08.101Z,17.68
2022-10-11T12:21:08.594Z,17.63
2022-10-11T12:22:08.068Z,17.76
2022-10-11T12:23:08.068Z,17.81
2022-10-11T12:24:08.059Z,17.87
2022-10-11T12:25:08.049Z,17.86
2022-10-11T12:26:08.010Z,17.67
2022-10-11T12:27:07.992Z,17.54
2022-10-11T12:28:08.020Z,17.51
2022-10-11T12:29:07.985Z,17.42
2022-10-11T12:30:07.983Z,17.39
2022-10-11T12:31:08.267Z,17.44
2022-10-11T12:32:07.983Z,17.65
2022-10-11T12:33:07.910Z,17.96
2022-10-11T12:34:07.907Z,17.98
2022-10-11T12:35:07.913Z,17.65
2022-10-11T12:36:08.664Z,17.23
2022-10-11T12:37:07.880Z,16.94
2022-10-11T12:38:07.867Z,16.60
2022-10-11T12:39:07.833Z,16.15
2022-10-11T12:40:07.825Z,15.72
2022-10-11T12:41:07.822Z,15.42
2022-10-11T12:42:07.817Z,15.25
2022-10-11T12:43:07.825Z,15.12
2022-10-11T12:44:07.786Z,15.03
2022-10-11T12:45:07.775Z,14.96
2022-10-11T12:46:08.165Z,14.89
2022-10-11T12:47:07.739Z,14.76
2022-10-11T12:48:07.750Z,14.64
2022-10-11T12:49:07.722Z,14.57
2022-10-11T12:50:07.707Z,14.55
2022-10-11T12:51:07.697Z,14.52
2022-10-11T12:52:07.694Z,14.48
2022-10-11T12:53:08.025Z,14.46
2022-10-11T12:54:25.899Z,14.42
2022-10-11T12:55:07.645Z,14.39
2022-10-11T12:56:08.313Z,14.39
2022-10-11T12:57:11.857Z,14.37
2022-10-11T12:58:07.644Z,14.34
2022-10-11T12:59:07.586Z,14.29
2022-10-11T13:00:07.566Z,14.21
2022-10-11T13:01:07.606Z,14.12
2022-10-11T13:02:07.538Z,14.06
2022-10-11T13:03:07.522Z,14.02
2022-10-11T13:04:07.518Z,13.99
2022-10-11T13:05:07.489Z,13.97
2022-10-11T13:06:07.831Z,13.95
2022-10-11T13:07:07.472Z,13.95